sensor_id;sensor_type;location;lat;lon;timestamp;P1;durP1;ratioP1;P2;durP2;ratioP2
39728;SDS011;25402;42.004;23.088;2023-10-19T00:02:44;171.27;;;11.98;;
39728;SDS011;25402;42.004;23.088;2023-10-19T00:05:13;60.65;;;9.55;;
39728;SDS011;25402;42.004;23.088;2023-10-19T00:07:43;108.18;;;9.85;;
39728;SDS011;25402;42.004;23.088;2023-10-19T00:10:12;35.38;;;9.57;;
39728;SDS011;25402;42.004;23.088;2023-10-19T00:12:46;112.10;;;9.65;;
39728;SDS011;25402;42.004;23.088;2023-10-19T00:15:22;46.92;;;8.85;;
39728;SDS011;25402;42.004;23.088;2023-10-19T00:17:58;24.60;;;7.80;;
39728;SDS011;25402;42.004;23.088;2023-10-19T00:20:34;19.67;;;7.32;;
39728;SDS011;25402;42.004;23.088;2023-10-19T00:23:18;32.53;;;7.90;;
39728;SDS011;25402;42.004;23.088;2023-10-19T00:25:53;13.45;;;8.50;;
39728;SDS011;25402;42.004;23.088;2023-10-19T00:28:23;14.18;;;9.73;;
39728;SDS011;25402;42.004;23.088;2023-10-19T00:30:53;12.73;;;8.63;;
39728;SDS011;25402;42.004;23.088;2023-10-19T00:33:28;15.55;;;9.98;;
39728;SDS011;25402;42.004;23.088;2023-10-19T00:35:59;16.55;;;9.30;;
39728;SDS011;25402;42.004;23.088;2023-10-19T00:38:36;18.70;;;10.55;;
39728;SDS011;25402;42.004;23.088;2023-10-19T00:41:13;17.58;;;10.18;;
39728;SDS011;25402;42.004;23.088;2023-10-19T00:43:47;15.10;;;9.90;;
39728;SDS011;25402;42.004;23.088;2023-10-19T00:46:23;16.70;;;9.27;;
39728;SDS011;25402;42.004;23.088;2023-10-19T00:48:57;13.98;;;9.20;;
39728;SDS011;25402;42.004;23.088;2023-10-19T00:51:28;16.98;;;9.63;;
39728;SDS011;25402;42.004;23.088;2023-10-19T00:54:13;17.85;;;9.13;;
39728;SDS011;25402;42.004;23.088;2023-10-19T00:56:52;16.40;;;8.68;;
39728;SDS011;25402;42.004;23.088;2023-10-19T00:59:21;16.55;;;8.82;;
39728;SDS011;25402;42.004;23.088;2023-10-19T01:04:29;15.85;;;8.13;;
39728;SDS011;25402;42.004;23.088;2023-10-19T01:06:58;15.45;;;8.90;;
39728;SDS011;25402;42.004;23.088;2023-10-19T01:09:31;19.90;;;8.63;;
39728;SDS011;25402;42.004;23.088;2023-10-19T01:12:01;12.40;;;7.90;;
39728;SDS011;25402;42.004;23.088;2023-10-19T01:15:05;13.85;;;7.60;;
39728;SDS011;25402;42.004;23.088;2023-10-19T01:17:38;13.35;;;8.05;;
39728;SDS011;25402;42.004;23.088;2023-10-19T01:20:08;16.70;;;8.73;;
39728;SDS011;25402;42.004;23.088;2023-10-19T01:22:50;14.75;;;8.07;;
39728;SDS011;25402;42.004;23.088;2023-10-19T01:25:32;13.82;;;8.02;;
39728;SDS011;25402;42.004;23.088;2023-10-19T01:28:06;16.15;;;7.85;;
39728;SDS011;25402;42.004;23.088;2023-10-19T01:33:03;15.77;;;7.60;;
39728;SDS011;25402;42.004;23.088;2023-10-19T01:35:37;12.30;;;7.38;;
39728;SDS011;25402;42.004;23.088;2023-10-19T01:38:20;12.80;;;7.75;;
39728;SDS011;25402;42.004;23.088;2023-10-19T01:40:48;11.25;;;6.63;;
39728;SDS011;25402;42.004;23.088;2023-10-19T01:43:16;12.02;;;7.50;;
39728;SDS011;25402;42.004;23.088;2023-10-19T01:45:47;12.55;;;7.05;;
39728;SDS011;25402;42.004;23.088;2023-10-19T01:48:19;10.38;;;6.95;;
39728;SDS011;25402;42.004;23.088;2023-10-19T01:50:53;9.23;;;6.47;;
39728;SDS011;25402;42.004;23.088;2023-10-19T01:53:21;12.50;;;6.53;;
39728;SDS011;25402;42.004;23.088;2023-10-19T01:55:50;13.90;;;6.60;;
39728;SDS011;25402;42.004;23.088;2023-10-19T01:58:23;16.98;;;6.72;;
39728;SDS011;25402;42.004;23.088;2023-10-19T02:00:51;10.10;;;6.28;;
39728;SDS011;25402;42.004;23.088;2023-10-19T02:03:20;9.98;;;7.13;;
39728;SDS011;25402;42.004;23.088;2023-10-19T02:05:57;10.90;;;6.78;;
39728;SDS011;25402;42.004;23.088;2023-10-19T02:08:26;10.63;;;6.63;;
39728;SDS011;25402;42.004;23.088;2023-10-19T02:10:54;11.13;;;6.65;;
39728;SDS011;25402;42.004;23.088;2023-10-19T02:13:23;12.68;;;7.00;;
39728;SDS011;25402;42.004;23.088;2023-10-19T02:15:53;10.18;;;6.70;;
39728;SDS011;25402;42.004;23.088;2023-10-19T02:18:19;11.85;;;6.88;;
39728;SDS011;25402;42.004;23.088;2023-10-19T02:20:46;11.50;;;7.00;;
39728;SDS011;25402;42.004;23.088;2023-10-19T02:23:13;15.55;;;6.90;;
39728;SDS011;25402;42.004;23.088;2023-10-19T02:25:42;9.60;;;6.47;;
39728;SDS011;25402;42.004;23.088;2023-10-19T02:28:08;12.15;;;6.45;;
39728;SDS011;25402;42.004;23.088;2023-10-19T02:30:36;13.65;;;6.63;;
39728;SDS011;25402;42.004;23.088;2023-10-19T02:33:03;10.02;;;7.40;;
39728;SDS011;25402;42.004;23.088;2023-10-19T02:35:31;16.85;;;6.95;;
39728;SDS011;25402;42.004;23.088;2023-10-19T02:38:00;29.55;;;7.57;;
39728;SDS011;25402;42.004;23.088;2023-10-19T02:40:27;15.38;;;7.25;;
39728;SDS011;25402;42.004;23.088;2023-10-19T02:42:58;12.75;;;6.75;;
39728;SDS011;25402;42.004;23.088;2023-10-19T02:45:28;15.70;;;6.85;;
39728;SDS011;25402;42.004;23.088;2023-10-19T02:47:57;20.00;;;6.90;;
39728;SDS011;25402;42.004;23.088;2023-10-19T02:50:23;20.27;;;9.45;;
39728;SDS011;25402;42.004;23.088;2023-10-19T02:52:51;29.73;;;8.85;;
39728;SDS011;25402;42.004;23.088;2023-10-19T02:55:18;12.13;;;7.47;;
39728;SDS011;25402;42.004;23.088;2023-10-19T02:57:48;15.13;;;7.70;;
39728;SDS011;25402;42.004;23.088;2023-10-19T03:00:17;15.88;;;9.27;;
39728;SDS011;25402;42.004;23.088;2023-10-19T03:02:45;18.38;;;6.38;;
39728;SDS011;25402;42.004;23.088;2023-10-19T03:05:13;15.82;;;6.25;;
39728;SDS011;25402;42.004;23.088;2023-10-19T03:07:39;10.48;;;6.75;;
39728;SDS011;25402;42.004;23.088;2023-10-19T03:10:08;17.30;;;7.88;;
39728;SDS011;25402;42.004;23.088;2023-10-19T03:12:48;15.40;;;7.75;;
39728;SDS011;25402;42.004;23.088;2023-10-19T03:15:17;27.00;;;8.02;;
39728;SDS011;25402;42.004;23.088;2023-10-19T03:17:46;23.90;;;7.72;;
39728;SDS011;25402;42.004;23.088;2023-10-19T03:20:12;20.88;;;7.03;;
39728;SDS011;25402;42.004;23.088;2023-10-19T03:22:42;27.27;;;6.35;;
39728;SDS011;25402;42.004;23.088;2023-10-19T03:25:08;19.88;;;6.50;;
39728;SDS011;25402;42.004;23.088;2023-10-19T03:28:08;13.20;;;6.13;;
39728;SDS011;25402;42.004;23.088;2023-10-19T03:30:38;10.77;;;4.78;;
39728;SDS011;25402;42.004;23.088;2023-10-19T03:33:05;14.70;;;5.05;;
39728;SDS011;25402;42.004;23.088;2023-10-19T03:35:35;10.15;;;4.88;;
39728;SDS011;25402;42.004;23.088;2023-10-19T03:38:17;8.70;;;5.00;;
39728;SDS011;25402;42.004;23.088;2023-10-19T03:41:08;6.90;;;5.10;;
39728;SDS011;25402;42.004;23.088;2023-10-19T03:43:51;8.15;;;4.57;;
39728;SDS011;25402;42.004;23.088;2023-10-19T03:46:34;10.88;;;4.80;;
39728;SDS011;25402;42.004;23.088;2023-10-19T03:49:16;10.77;;;5.70;;
39728;SDS011;25402;42.004;23.088;2023-10-19T03:51:58;7.70;;;5.30;;
39728;SDS011;25402;42.004;23.088;2023-10-19T03:54:48;7.35;;;5.28;;
39728;SDS011;25402;42.004;23.088;2023-10-19T03:57:41;11.10;;;5.72;;
39728;SDS011;25402;42.004;23.088;2023-10-19T04:00:13;12.55;;;5.55;;
39728;SDS011;25402;42.004;23.088;2023-10-19T04:02:46;10.83;;;6.03;;
39728;SDS011;25402;42.004;23.088;2023-10-19T04:05:22;10.38;;;6.00;;
39728;SDS011;25402;42.004;23.088;2023-10-19T04:07:53;12.60;;;5.72;;
39728;SDS011;25402;42.004;23.088;2023-10-19T04:10:25;9.27;;;6.13;;
39728;SDS011;25402;42.004;23.088;2023-10-19T04:15:47;50.55;;;24.98;;
39728;SDS011;25402;42.004;23.088;2023-10-19T04:18:19;23.48;;;12.23;;
39728;SDS011;25402;42.004;23.088;2023-10-19T04:21:08;10.18;;;6.78;;
39728;SDS011;25402;42.004;23.088;2023-10-19T04:23:44;8.40;;;5.80;;
39728;SDS011;25402;42.004;23.088;2023-10-19T04:26:22;10.60;;;6.30;;
39728;SDS011;25402;42.004;23.088;2023-10-19T04:28:52;25.15;;;13.55;;
39728;SDS011;25402;42.004;23.088;2023-10-19T04:31:40;12.85;;;6.10;;
39728;SDS011;25402;42.004;23.088;2023-10-19T04:34:28;10.82;;;5.85;;
39728;SDS011;25402;42.004;23.088;2023-10-19T04:37:20;10.20;;;6.60;;
39728;SDS011;25402;42.004;23.088;2023-10-19T04:43:03;14.35;;;6.50;;
39728;SDS011;25402;42.004;23.088;2023-10-19T04:45:49;23.30;;;12.98;;
39728;SDS011;25402;42.004;23.088;2023-10-19T04:48:21;26.17;;;9.68;;
39728;SDS011;25402;42.004;23.088;2023-10-19T04:50:50;15.60;;;6.80;;
39728;SDS011;25402;42.004;23.088;2023-10-19T04:53:17;19.98;;;7.15;;
39728;SDS011;25402;42.004;23.088;2023-10-19T04:55:51;34.95;;;13.35;;
39728;SDS011;25402;42.004;23.088;2023-10-19T04:58:27;40.55;;;20.55;;
39728;SDS011;25402;42.004;23.088;2023-10-19T05:01:05;31.63;;;12.45;;
39728;SDS011;25402;42.004;23.088;2023-10-19T05:03:36;18.23;;;7.43;;
39728;SDS011;25402;42.004;23.088;2023-10-19T05:06:13;19.63;;;7.23;;
39728;SDS011;25402;42.004;23.088;2023-10-19T05:09:03;23.70;;;7.05;;
39728;SDS011;25402;42.004;23.088;2023-10-19T05:11:55;20.02;;;7.15;;
39728;SDS011;25402;42.004;23.088;2023-10-19T05:14:28;20.13;;;6.68;;
39728;SDS011;25402;42.004;23.088;2023-10-19T05:17:09;9.38;;;6.25;;
39728;SDS011;25402;42.004;23.088;2023-10-19T05:19:38;17.83;;;6.55;;
39728;SDS011;25402;42.004;23.088;2023-10-19T05:22:21;20.25;;;7.03;;
39728;SDS011;25402;42.004;23.088;2023-10-19T05:24:54;14.98;;;6.70;;
39728;SDS011;25402;42.004;23.088;2023-10-19T05:27:22;15.95;;;6.97;;
39728;SDS011;25402;42.004;23.088;2023-10-19T05:29:56;30.38;;;7.32;;
39728;SDS011;25402;42.004;23.088;2023-10-19T05:32:24;15.68;;;7.28;;
39728;SDS011;25402;42.004;23.088;2023-10-19T05:34:55;21.23;;;8.10;;
39728;SDS011;25402;42.004;23.088;2023-10-19T05:37:36;17.58;;;7.88;;
39728;SDS011;25402;42.004;23.088;2023-10-19T05:40:06;24.52;;;7.88;;
39728;SDS011;25402;42.004;23.088;2023-10-19T05:42:38;18.98;;;7.30;;
39728;SDS011;25402;42.004;23.088;2023-10-19T05:45:09;19.90;;;7.45;;
39728;SDS011;25402;42.004;23.088;2023-10-19T05:47:49;12.57;;;6.20;;
39728;SDS011;25402;42.004;23.088;2023-10-19T05:50:17;9.90;;;6.10;;
39728;SDS011;25402;42.004;23.088;2023-10-19T05:52:55;10.98;;;6.05;;
39728;SDS011;25402;42.004;23.088;2023-10-19T05:55:25;15.65;;;6.25;;
39728;SDS011;25402;42.004;23.088;2023-10-19T05:57:58;19.67;;;7.15;;
39728;SDS011;25402;42.004;23.088;2023-10-19T06:00:40;12.32;;;6.10;;
39728;SDS011;25402;42.004;23.088;2023-10-19T06:16:46;50.25;;;9.60;;
39728;SDS011;25402;42.004;23.088;2023-10-19T06:19:13;150.20;;;26.60;;
39728;SDS011;25402;42.004;23.088;2023-10-19T06:21:41;171.52;;;19.27;;
39728;SDS011;25402;42.004;23.088;2023-10-19T06:24:08;115.10;;;14.60;;
39728;SDS011;25402;42.004;23.088;2023-10-19T06:26:39;101.65;;;13.90;;
39728;SDS011;25402;42.004;23.088;2023-10-19T06:29:07;72.03;;;13.40;;
39728;SDS011;25402;42.004;23.088;2023-10-19T06:31:36;61.17;;;11.95;;
39728;SDS011;25402;42.004;23.088;2023-10-19T06:34:06;54.38;;;12.02;;
39728;SDS011;25402;42.004;23.088;2023-10-19T06:36:33;17.95;;;7.70;;
39728;SDS011;25402;42.004;23.088;2023-10-19T06:39:00;12.85;;;6.57;;
39728;SDS011;25402;42.004;23.088;2023-10-19T06:41:34;21.13;;;6.20;;
39728;SDS011;25402;42.004;23.088;2023-10-19T06:44:01;13.75;;;4.97;;
39728;SDS011;25402;42.004;23.088;2023-10-19T06:46:28;10.63;;;5.22;;
39728;SDS011;25402;42.004;23.088;2023-10-19T06:48:56;10.18;;;5.70;;
39728;SDS011;25402;42.004;23.088;2023-10-19T06:51:27;14.90;;;6.00;;
39728;SDS011;25402;42.004;23.088;2023-10-19T06:53:57;13.30;;;6.25;;
39728;SDS011;25402;42.004;23.088;2023-10-19T06:56:24;11.95;;;6.65;;
39728;SDS011;25402;42.004;23.088;2023-10-19T06:58:51;11.68;;;6.07;;
39728;SDS011;25402;42.004;23.088;2023-10-19T07:01:18;13.52;;;6.95;;
39728;SDS011;25402;42.004;23.088;2023-10-19T07:03:49;24.85;;;8.43;;
39728;SDS011;25402;42.004;23.088;2023-10-19T07:06:22;28.50;;;14.93;;
39728;SDS011;25402;42.004;23.088;2023-10-19T07:08:51;17.02;;;6.85;;
39728;SDS011;25402;42.004;23.088;2023-10-19T07:18:56;8.30;;;5.90;;
39728;SDS011;25402;42.004;23.088;2023-10-19T07:21:24;17.75;;;6.43;;
39728;SDS011;25402;42.004;23.088;2023-10-19T07:23:56;17.85;;;7.45;;
39728;SDS011;25402;42.004;23.088;2023-10-19T07:26:26;23.38;;;8.27;;
39728;SDS011;25402;42.004;23.088;2023-10-19T07:28:56;29.63;;;9.18;;
39728;SDS011;25402;42.004;23.088;2023-10-19T07:31:24;15.02;;;6.90;;
39728;SDS011;25402;42.004;23.088;2023-10-19T07:33:52;23.85;;;8.02;;
39728;SDS011;25402;42.004;23.088;2023-10-19T07:36:20;12.90;;;7.00;;
39728;SDS011;25402;42.004;23.088;2023-10-19T07:38:50;13.00;;;6.65;;
39728;SDS011;25402;42.004;23.088;2023-10-19T07:41:18;19.33;;;6.57;;
39728;SDS011;25402;42.004;23.088;2023-10-19T07:43:45;12.65;;;6.00;;
39728;SDS011;25402;42.004;23.088;2023-10-19T07:46:12;10.40;;;5.45;;
39728;SDS011;25402;42.004;23.088;2023-10-19T07:48:42;14.27;;;5.55;;
39728;SDS011;25402;42.004;23.088;2023-10-19T07:51:09;12.00;;;4.57;;
39728;SDS011;25402;42.004;23.088;2023-10-19T07:53:37;14.32;;;6.10;;
39728;SDS011;25402;42.004;23.088;2023-10-19T07:56:05;20.58;;;6.55;;
39728;SDS011;25402;42.004;23.088;2023-10-19T07:58:34;12.68;;;5.82;;
39728;SDS011;25402;42.004;23.088;2023-10-19T08:01:01;26.77;;;8.13;;
39728;SDS011;25402;42.004;23.088;2023-10-19T08:03:31;13.38;;;6.03;;
39728;SDS011;25402;42.004;23.088;2023-10-19T08:05:58;8.13;;;3.47;;
39728;SDS011;25402;42.004;23.088;2023-10-19T08:08:26;4.30;;;3.00;;
39728;SDS011;25402;42.004;23.088;2023-10-19T08:11:00;4.80;;;2.95;;
39728;SDS011;25402;42.004;23.088;2023-10-19T08:13:27;6.70;;;3.33;;
39728;SDS011;25402;42.004;23.088;2023-10-19T08:15:55;4.75;;;3.63;;
39728;SDS011;25402;42.004;23.088;2023-10-19T08:18:24;6.45;;;3.78;;
39728;SDS011;25402;42.004;23.088;2023-10-19T08:20:51;14.88;;;4.00;;
39728;SDS011;25402;42.004;23.088;2023-10-19T08:23:18;5.95;;;3.30;;
39728;SDS011;25402;42.004;23.088;2023-10-19T08:25:48;6.85;;;4.10;;
39728;SDS011;25402;42.004;23.088;2023-10-19T08:28:16;4.40;;;3.17;;
39728;SDS011;25402;42.004;23.088;2023-10-19T08:30:46;8.73;;;3.00;;
39728;SDS011;25402;42.004;23.088;2023-10-19T08:33:23;3.42;;;2.40;;
39728;SDS011;25402;42.004;23.088;2023-10-19T08:35:51;2.67;;;2.38;;
39728;SDS011;25402;42.004;23.088;2023-10-19T08:38:19;6.38;;;2.40;;
39728;SDS011;25402;42.004;23.088;2023-10-19T08:40:49;3.90;;;2.58;;
39728;SDS011;25402;42.004;23.088;2023-10-19T08:43:16;10.65;;;2.45;;
39728;SDS011;25402;42.004;23.088;2023-10-19T08:45:49;11.13;;;2.22;;
39728;SDS011;25402;42.004;23.088;2023-10-19T08:48:17;3.28;;;1.98;;
39728;SDS011;25402;42.004;23.088;2023-10-19T08:50:45;4.38;;;2.10;;
39728;SDS011;25402;42.004;23.088;2023-10-19T08:53:14;6.78;;;3.20;;
39728;SDS011;25402;42.004;23.088;2023-10-19T08:55:44;4.05;;;2.00;;
39728;SDS011;25402;42.004;23.088;2023-10-19T08:58:13;7.57;;;2.40;;
39728;SDS011;25402;42.004;23.088;2023-10-19T09:00:44;3.08;;;1.95;;
39728;SDS011;25402;42.004;23.088;2023-10-19T09:03:15;7.87;;;2.67;;
39728;SDS011;25402;42.004;23.088;2023-10-19T09:05:44;7.43;;;2.35;;
39728;SDS011;25402;42.004;23.088;2023-10-19T09:08:15;9.23;;;3.40;;
39728;SDS011;25402;42.004;23.088;2023-10-19T09:10:49;6.95;;;2.67;;
39728;SDS011;25402;42.004;23.088;2023-10-19T09:13:21;5.68;;;2.65;;
39728;SDS011;25402;42.004;23.088;2023-10-19T09:15:49;6.20;;;2.75;;
39728;SDS011;25402;42.004;23.088;2023-10-19T09:18:19;5.18;;;2.08;;
39728;SDS011;25402;42.004;23.088;2023-10-19T09:20:48;7.50;;;5.63;;
39728;SDS011;25402;42.004;23.088;2023-10-19T09:23:21;9.95;;;5.30;;
39728;SDS011;25402;42.004;23.088;2023-10-19T09:25:50;4.13;;;2.38;;
39728;SDS011;25402;42.004;23.088;2023-10-19T09:28:18;2.67;;;1.80;;
39728;SDS011;25402;42.004;23.088;2023-10-19T09:30:50;12.15;;;7.40;;
39728;SDS011;25402;42.004;23.088;2023-10-19T09:33:25;17.33;;;7.18;;
39728;SDS011;25402;42.004;23.088;2023-10-19T09:36:00;3.78;;;2.90;;
39728;SDS011;25402;42.004;23.088;2023-10-19T09:38:38;5.90;;;3.17;;
39728;SDS011;25402;42.004;23.088;2023-10-19T09:41:07;3.63;;;1.88;;
39728;SDS011;25402;42.004;23.088;2023-10-19T09:43:41;2.90;;;1.65;;
39728;SDS011;25402;42.004;23.088;2023-10-19T09:46:10;9.65;;;2.30;;
39728;SDS011;25402;42.004;23.088;2023-10-19T09:48:39;10.27;;;2.70;;
39728;SDS011;25402;42.004;23.088;2023-10-19T09:51:09;8.82;;;2.45;;
39728;SDS011;25402;42.004;23.088;2023-10-19T09:53:38;2.00;;;1.80;;
39728;SDS011;25402;42.004;23.088;2023-10-19T09:56:06;4.40;;;2.00;;
39728;SDS011;25402;42.004;23.088;2023-10-19T09:58:38;4.65;;;2.20;;
39728;SDS011;25402;42.004;23.088;2023-10-19T10:01:11;3.88;;;1.70;;
39728;SDS011;25402;42.004;23.088;2023-10-19T10:03:41;4.97;;;2.75;;
39728;SDS011;25402;42.004;23.088;2023-10-19T10:06:13;3.03;;;2.10;;
39728;SDS011;25402;42.004;23.088;2023-10-19T10:08:41;2.43;;;1.90;;
39728;SDS011;25402;42.004;23.088;2023-10-19T10:11:16;4.40;;;1.80;;
39728;SDS011;25402;42.004;23.088;2023-10-19T10:13:45;6.13;;;1.92;;
39728;SDS011;25402;42.004;23.088;2023-10-19T10:16:16;3.38;;;1.70;;
39728;SDS011;25402;42.004;23.088;2023-10-19T10:18:44;3.88;;;2.58;;
39728;SDS011;25402;42.004;23.088;2023-10-19T10:21:15;6.38;;;2.75;;
39728;SDS011;25402;42.004;23.088;2023-10-19T10:23:45;2.28;;;2.08;;
39728;SDS011;25402;42.004;23.088;2023-10-19T10:26:14;4.18;;;3.03;;
39728;SDS011;25402;42.004;23.088;2023-10-19T10:28:46;5.55;;;2.03;;
39728;SDS011;25402;42.004;23.088;2023-10-19T10:31:15;4.50;;;2.20;;
39728;SDS011;25402;42.004;23.088;2023-10-19T10:33:46;28.50;;;6.15;;
39728;SDS011;25402;42.004;23.088;2023-10-19T10:36:16;4.28;;;2.13;;
39728;SDS011;25402;42.004;23.088;2023-10-19T10:38:44;2.55;;;2.00;;
39728;SDS011;25402;42.004;23.088;2023-10-19T10:41:18;3.22;;;1.40;;
39728;SDS011;25402;42.004;23.088;2023-10-19T10:43:49;8.88;;;1.50;;
39728;SDS011;25402;42.004;23.088;2023-10-19T10:46:21;3.55;;;2.20;;
39728;SDS011;25402;42.004;23.088;2023-10-19T10:48:49;2.67;;;1.75;;
39728;SDS011;25402;42.004;23.088;2023-10-19T10:51:22;3.80;;;1.92;;
39728;SDS011;25402;42.004;23.088;2023-10-19T10:53:50;3.05;;;1.70;;
39728;SDS011;25402;42.004;23.088;2023-10-19T10:56:18;2.50;;;1.65;;
39728;SDS011;25402;42.004;23.088;2023-10-19T10:58:46;1.80;;;1.50;;
39728;SDS011;25402;42.004;23.088;2023-10-19T11:01:13;3.90;;;1.95;;
39728;SDS011;25402;42.004;23.088;2023-10-19T11:04:04;3.97;;;1.77;;
39728;SDS011;25402;42.004;23.088;2023-10-19T11:06:35;6.57;;;1.92;;
39728;SDS011;25402;42.004;23.088;2023-10-19T11:09:15;3.33;;;1.55;;
39728;SDS011;25402;42.004;23.088;2023-10-19T11:11:44;2.72;;;1.60;;
39728;SDS011;25402;42.004;23.088;2023-10-19T11:14:12;10.77;;;1.95;;
39728;SDS011;25402;42.004;23.088;2023-10-19T11:16:39;6.38;;;1.67;;
39728;SDS011;25402;42.004;23.088;2023-10-19T11:19:06;22.00;;;2.60;;
39728;SDS011;25402;42.004;23.088;2023-10-19T11:21:36;5.32;;;2.60;;
39728;SDS011;25402;42.004;23.088;2023-10-19T11:24:03;11.90;;;2.30;;
39728;SDS011;25402;42.004;23.088;2023-10-19T11:26:37;5.35;;;1.65;;
39728;SDS011;25402;42.004;23.088;2023-10-19T11:29:07;2.10;;;1.60;;
39728;SDS011;25402;42.004;23.088;2023-10-19T11:31:35;3.83;;;1.90;;
39728;SDS011;25402;42.004;23.088;2023-10-19T11:34:05;4.13;;;1.80;;
39728;SDS011;25402;42.004;23.088;2023-10-19T11:36:34;2.20;;;1.50;;
39728;SDS011;25402;42.004;23.088;2023-10-19T11:39:07;51.97;;;4.15;;
39728;SDS011;25402;42.004;23.088;2023-10-19T11:41:37;2.03;;;1.85;;
39728;SDS011;25402;42.004;23.088;2023-10-19T11:44:04;56.50;;;3.67;;
39728;SDS011;25402;42.004;23.088;2023-10-19T11:46:31;1.90;;;1.60;;
39728;SDS011;25402;42.004;23.088;2023-10-19T11:48:59;2.28;;;1.75;;
39728;SDS011;25402;42.004;23.088;2023-10-19T11:51:26;3.47;;;1.70;;
39728;SDS011;25402;42.004;23.088;2023-10-19T11:53:55;2.75;;;1.73;;
39728;SDS011;25402;42.004;23.088;2023-10-19T11:56:24;2.75;;;1.80;;
39728;SDS011;25402;42.004;23.088;2023-10-19T11:58:52;2.90;;;1.52;;
39728;SDS011;25402;42.004;23.088;2023-10-19T12:01:19;5.57;;;1.50;;
39728;SDS011;25402;42.004;23.088;2023-10-19T12:03:46;3.70;;;1.70;;
39728;SDS011;25402;42.004;23.088;2023-10-19T12:06:18;6.82;;;2.08;;
39728;SDS011;25402;42.004;23.088;2023-10-19T12:08:45;3.28;;;2.50;;
39728;SDS011;25402;42.004;23.088;2023-10-19T12:11:14;2.92;;;2.33;;
39728;SDS011;25402;42.004;23.088;2023-10-19T12:13:41;2.08;;;1.50;;
39728;SDS011;25402;42.004;23.088;2023-10-19T12:16:09;6.32;;;1.55;;
39728;SDS011;25402;42.004;23.088;2023-10-19T12:18:37;1.70;;;1.50;;
39728;SDS011;25402;42.004;23.088;2023-10-19T12:21:05;2.25;;;1.40;;
39728;SDS011;25402;42.004;23.088;2023-10-19T12:23:36;2.55;;;1.50;;
39728;SDS011;25402;42.004;23.088;2023-10-19T12:26:05;4.50;;;1.38;;
39728;SDS011;25402;42.004;23.088;2023-10-19T12:28:37;1.77;;;1.40;;
39728;SDS011;25402;42.004;23.088;2023-10-19T12:31:05;3.28;;;1.42;;
39728;SDS011;25402;42.004;23.088;2023-10-19T12:33:34;2.08;;;1.60;;
39728;SDS011;25402;42.004;23.088;2023-10-19T12:36:01;2.97;;;1.60;;
39728;SDS011;25402;42.004;23.088;2023-10-19T12:38:47;2.35;;;1.88;;
39728;SDS011;25402;42.004;23.088;2023-10-19T12:41:14;3.13;;;1.70;;
39728;SDS011;25402;42.004;23.088;2023-10-19T12:43:43;1.90;;;1.45;;
39728;SDS011;25402;42.004;23.088;2023-10-19T12:46:11;4.55;;;1.40;;
39728;SDS011;25402;42.004;23.088;2023-10-19T12:48:39;13.85;;;2.10;;
39728;SDS011;25402;42.004;23.088;2023-10-19T12:51:06;4.70;;;1.67;;
39728;SDS011;25402;42.004;23.088;2023-10-19T12:53:34;7.00;;;1.70;;
39728;SDS011;25402;42.004;23.088;2023-10-19T12:56:02;3.38;;;1.88;;
39728;SDS011;25402;42.004;23.088;2023-10-19T12:58:30;1.77;;;1.48;;
39728;SDS011;25402;42.004;23.088;2023-10-19T13:00:59;2.75;;;2.00;;
39728;SDS011;25402;42.004;23.088;2023-10-19T13:03:26;2.75;;;1.70;;
39728;SDS011;25402;42.004;23.088;2023-10-19T13:05:56;2.80;;;1.50;;
39728;SDS011;25402;42.004;23.088;2023-10-19T13:08:24;6.70;;;2.13;;
39728;SDS011;25402;42.004;23.088;2023-10-19T13:10:52;6.90;;;2.10;;
39728;SDS011;25402;42.004;23.088;2023-10-19T13:13:21;4.70;;;1.63;;
39728;SDS011;25402;42.004;23.088;2023-10-19T13:15:49;6.03;;;1.58;;
39728;SDS011;25402;42.004;23.088;2023-10-19T13:18:22;2.70;;;1.75;;
39728;SDS011;25402;42.004;23.088;2023-10-19T13:20:53;9.70;;;1.83;;
39728;SDS011;25402;42.004;23.088;2023-10-19T13:23:22;1.55;;;1.45;;
39728;SDS011;25402;42.004;23.088;2023-10-19T13:25:49;5.22;;;2.00;;
39728;SDS011;25402;42.004;23.088;2023-10-19T13:28:18;6.50;;;2.00;;
39728;SDS011;25402;42.004;23.088;2023-10-19T13:30:48;2.72;;;1.70;;
39728;SDS011;25402;42.004;23.088;2023-10-19T13:33:16;15.23;;;4.28;;
39728;SDS011;25402;42.004;23.088;2023-10-19T13:35:45;7.07;;;2.95;;
39728;SDS011;25402;42.004;23.088;2023-10-19T13:38:13;7.05;;;2.30;;
39728;SDS011;25402;42.004;23.088;2023-10-19T13:40:42;6.13;;;2.42;;
39728;SDS011;25402;42.004;23.088;2023-10-19T13:43:11;10.63;;;3.38;;
39728;SDS011;25402;42.004;23.088;2023-10-19T13:45:46;16.35;;;4.05;;
39728;SDS011;25402;42.004;23.088;2023-10-19T13:48:14;4.78;;;2.35;;
39728;SDS011;25402;42.004;23.088;2023-10-19T13:50:42;11.65;;;3.60;;
39728;SDS011;25402;42.004;23.088;2023-10-19T13:53:17;13.20;;;3.45;;
39728;SDS011;25402;42.004;23.088;2023-10-19T13:55:47;19.95;;;3.38;;
39728;SDS011;25402;42.004;23.088;2023-10-19T13:58:14;7.85;;;2.47;;
39728;SDS011;25402;42.004;23.088;2023-10-19T14:00:41;13.55;;;3.47;;
39728;SDS011;25402;42.004;23.088;2023-10-19T14:03:10;5.65;;;2.35;;
39728;SDS011;25402;42.004;23.088;2023-10-19T14:05:49;11.75;;;2.45;;
39728;SDS011;25402;42.004;23.088;2023-10-19T14:08:20;20.50;;;5.30;;
39728;SDS011;25402;42.004;23.088;2023-10-19T14:10:48;12.38;;;4.05;;
39728;SDS011;25402;42.004;23.088;2023-10-19T14:13:15;6.05;;;3.00;;
39728;SDS011;25402;42.004;23.088;2023-10-19T14:15:42;16.70;;;4.15;;
39728;SDS011;25402;42.004;23.088;2023-10-19T14:18:11;10.95;;;3.20;;
39728;SDS011;25402;42.004;23.088;2023-10-19T14:20:38;21.30;;;3.83;;
39728;SDS011;25402;42.004;23.088;2023-10-19T14:23:05;12.25;;;2.83;;
39728;SDS011;25402;42.004;23.088;2023-10-19T14:25:37;5.93;;;2.42;;
39728;SDS011;25402;42.004;23.088;2023-10-19T14:28:07;4.18;;;2.25;;
39728;SDS011;25402;42.004;23.088;2023-10-19T14:30:37;3.75;;;2.53;;
39728;SDS011;25402;42.004;23.088;2023-10-19T14:33:04;7.00;;;1.98;;
39728;SDS011;25402;42.004;23.088;2023-10-19T14:35:36;2.10;;;1.90;;
39728;SDS011;25402;42.004;23.088;2023-10-19T14:38:07;3.25;;;2.28;;
39728;SDS011;25402;42.004;23.088;2023-10-19T14:40:34;4.10;;;2.35;;
39728;SDS011;25402;42.004;23.088;2023-10-19T14:43:08;3.30;;;1.88;;
39728;SDS011;25402;42.004;23.088;2023-10-19T14:45:39;8.50;;;2.92;;
39728;SDS011;25402;42.004;23.088;2023-10-19T14:55:00;2.75;;;2.03;;
39728;SDS011;25402;42.004;23.088;2023-10-19T14:57:36;5.20;;;2.33;;
39728;SDS011;25402;42.004;23.088;2023-10-19T15:33:46;3.25;;;2.20;;
39728;SDS011;25402;42.004;23.088;2023-10-19T15:36:15;2.75;;;2.38;;
39728;SDS011;25402;42.004;23.088;2023-10-19T15:38:46;3.28;;;2.30;;
39728;SDS011;25402;42.004;23.088;2023-10-19T15:41:14;3.25;;;2.53;;
39728;SDS011;25402;42.004;23.088;2023-10-19T15:43:42;2.50;;;2.20;;
39728;SDS011;25402;42.004;23.088;2023-10-19T15:46:12;5.13;;;2.53;;
39728;SDS011;25402;42.004;23.088;2023-10-19T15:48:40;3.13;;;2.35;;
39728;SDS011;25402;42.004;23.088;2023-10-19T15:51:09;3.95;;;2.50;;
39728;SDS011;25402;42.004;23.088;2023-10-19T15:53:45;6.07;;;2.75;;
39728;SDS011;25402;42.004;23.088;2023-10-19T15:56:14;3.15;;;2.50;;
39728;SDS011;25402;42.004;23.088;2023-10-19T15:58:45;3.22;;;2.35;;
39728;SDS011;25402;42.004;23.088;2023-10-19T16:01:18;4.32;;;2.33;;
39728;SDS011;25402;42.004;23.088;2023-10-19T16:03:48;3.42;;;2.72;;